Terminal Aerodrome Forecast
Issued by NWS

Home | Current Version | Previous Version | Text Only | Print | Product List | Glossary On
Versions: 1 2 3 4 5 6 7 8 9 10 11 12 13 14 15 16 17 18 19 20 21 22 23 24 25 26 27 28 29 30 31 32 33 34 35
000
FTPA31 PHFO 020100 AAA
TAFITO
TAF AMD
PHTO 020128Z 0201/0224 01011KT P6SM VCTS FEW025 BKN050CB
      TEMPO 0201/0203 5SM -TSRA BKN025CB
     FM020300 01008KT P6SM VCSH FEW025 BKN050
     FM020600 25006KT P6SM FEW020 SCT040
     FM022000 12010KT P6SM SCT020 BKN050=

USA.gov is the U.S. government's official web portal to all federal, state and local government web resources and services.